Time;durP1;ratioP1;P1;durP2;ratioP2;P2;SDS_P1;SDS_P2;PMS_P1;PMS_P2;Temp;Humidity;BMP_temperature;BMP_pressure;BME280_temperature;BME280_humidity;BME280_pressure;Samples;Min_cycle;Max_cycle;Signal;HPM_P1;HPM_P2
2022/01/09 00:00:55;;;;;;;;;2.75;1.00;;;;;6.57;71.29;99704.97;4999549;28;45310;-77
2022/01/09 00:03:20;;;;;;;;;3.00;1.00;;;;;6.60;71.41;99712.91;4992903;28;45439;-76
2022/01/09 00:05:46;;;;;;;;;6.00;1.00;;;;;6.42;71.14;99708.16;4999497;28;45289;-76
2022/01/09 00:08:11;;;;;;;;;2.25;1.00;;;;;6.48;71.34;99710.91;4992641;28;45337;-76
2022/01/09 00:10:37;;;;;;;;;3.00;0.00;;;;;6.55;71.59;99741.69;5001944;28;45306;-76
2022/01/09 00:13:03;;;;;;;;;5.00;1.00;;;;;6.51;72.14;99734.59;5015693;28;46947;-77
2022/01/09 00:15:28;;;;;;;;;2.75;0.50;;;;;6.50;71.74;99736.34;5000887;28;45519;-75
2022/01/09 00:17:54;;;;;;;;;1.25;1.00;;;;;6.47;71.19;99752.03;5000275;28;45241;-77
2022/01/09 00:20:19;;;;;;;;;3.25;2.00;;;;;6.53;71.18;99769.66;4999664;28;45273;-76
2022/01/09 00:22:47;;;;;;;;;4.75;2.00;;;;;6.48;71.21;99772.16;4998681;28;46222;-76
2022/01/09 00:25:15;;;;;;;;;5.75;0.75;;;;;6.47;71.71;99778.28;5000352;28;45334;-76
2022/01/09 00:27:41;;;;;;;;;3.00;1.00;;;;;6.51;71.64;99794.97;4997837;28;45404;-76
2022/01/09 00:30:10;;;;;;;;;2.75;2.00;;;;;6.40;71.99;99780.72;5001307;28;45326;-76
2022/01/09 00:32:36;;;;;;;;;3.50;2.00;;;;;6.28;72.07;99761.19;5000380;28;45429;-76
2022/01/09 00:35:02;;;;;;;;;2.00;2.00;;;;;6.36;71.67;99789.34;5017347;28;46013;-76
2022/01/09 00:37:27;;;;;;;;;1.25;1.00;;;;;6.30;71.94;99799.69;5000435;28;45284;-76
2022/01/09 00:39:53;;;;;;;;;2.50;1.75;;;;;6.19;72.38;99788.91;4994468;28;45417;-76
2022/01/09 00:42:19;;;;;;;;;2.00;1.00;;;;;6.38;72.02;99830.53;5000038;28;45284;-76
2022/01/09 00:44:45;;;;;;;;;4.25;1.00;;;;;6.12;72.29;99794.88;4995555;28;45379;-77
2022/01/09 00:47:10;;;;;;;;;1.00;1.00;;;;;6.28;71.71;99829.41;5000154;28;45414;-76
2022/01/09 00:49:37;;;;;;;;;1.50;1.25;;;;;6.15;72.51;99815.94;4999819;28;45429;-76
2022/01/09 00:52:03;;;;;;;;;2.75;1.00;;;;;6.21;72.44;99830.09;5000043;28;45323;-77
2022/01/09 00:54:29;;;;;;;;;5.75;1.75;;;;;6.27;72.14;99846.03;4998218;28;45347;-76
2022/01/09 00:56:54;;;;;;;;;6.00;0.75;;;;;6.03;71.94;99816.50;5000353;28;45229;-76
2022/01/09 00:59:20;;;;;;;;;1.25;1.25;;;;;6.21;71.35;99858.06;5000456;28;45985;-77
2022/01/09 01:01:45;;;;;;;;;7.50;1.00;;;;;5.99;71.44;99831.28;4998833;28;47174;-76
2022/01/09 01:04:10;;;;;;;;;3.75;1.50;;;;;6.08;71.48;99855.97;4996738;28;45194;-76
2022/01/09 01:06:36;;;;;;;;;3.00;1.50;;;;;6.04;70.93;99863.75;5001336;28;45238;-76
2022/01/09 01:09:02;;;;;;;;;3.75;0.50;;;;;6.08;71.27;99879.56;4996373;28;45587;-77
2022/01/09 01:11:27;;;;;;;;;6.25;1.25;;;;;6.14;70.90;99895.50;5017385;28;48540;-77
2022/01/09 01:13:53;;;;;;;;;2.25;1.00;;;;;6.19;70.99;99912.25;5011173;28;45719;-76
2022/01/09 01:16:18;;;;;;;;;4.75;1.00;;;;;5.92;70.42;99879.13;5002262;28;45457;-76
2022/01/09 01:18:45;;;;;;;;;3.00;1.00;;;;;6.17;71.49;99925.34;4995594;28;45315;-76
2022/01/09 01:21:11;;;;;;;;;1.75;1.00;;;;;5.97;70.91;99901.16;4998648;28;45479;-76
2022/01/09 01:23:37;;;;;;;;;2.25;1.00;;;;;6.09;71.32;99915.47;4993151;28;45708;-76
2022/01/09 01:26:03;;;;;;;;;3.00;3.00;;;;;5.97;70.83;99909.03;4999683;28;45725;-76
2022/01/09 01:28:29;;;;;;;;;1.50;0.50;;;;;5.90;71.26;99906.16;4994058;28;46098;-76
2022/01/09 01:30:54;;;;;;;;;2.75;0.50;;;;;6.04;71.24;99945.06;5000388;28;46384;-76
2022/01/09 01:33:20;;;;;;;;;1.00;0.00;;;;;6.09;71.14;99958.34;4993290;28;45268;-77
2022/01/09 01:35:45;;;;;;;;;1.00;0.00;;;;;6.00;71.12;99953.72;4994274;28;45322;-75
2022/01/09 01:38:11;;;;;;;;;3.25;1.00;;;;;5.90;71.32;99954.25;4988725;28;45444;-75
2022/01/09 01:40:36;;;;;;;;;2.75;1.50;;;;;5.89;71.28;99948.97;4998027;28;46744;-75
2022/01/09 01:43:01;;;;;;;;;4.25;1.00;;;;;6.07;72.44;100007.22;4995368;28;45294;-75
2022/01/09 01:45:27;;;;;;;;;1.00;1.00;;;;;5.86;72.89;99972.50;5001545;28;45283;-75
2022/01/09 01:47:52;;;;;;;;;2.75;2.00;;;;;6.05;73.43;100017.69;4994940;28;47154;-74
2022/01/09 01:50:19;;;;;;;;;3.00;2.00;;;;;5.97;73.44;100018.31;5000187;28;45567;-72
2022/01/09 01:52:48;;;;;;;;;3.50;0.00;;;;;5.84;74.81;100004.78;4997828;28;45485;-74
2022/01/09 01:55:15;;;;;;;;;2.75;1.75;;;;;5.79;74.35;100014.22;5001283;28;45312;-75
2022/01/09 01:57:43;;;;;;;;;0.50;0.50;;;;;5.77;73.66;100015.94;4993359;28;46430;-75
2022/01/09 02:00:14;;;;;;;;;4.75;2.50;;;;;5.86;74.62;100038.06;5000980;28;45750;-75
2022/01/09 02:02:40;;;;;;;;;3.00;1.25;;;;;5.72;73.93;100012.28;4995012;28;45394;-75
2022/01/09 02:05:06;;;;;;;;;1.00;1.00;;;;;5.88;74.61;100034.63;4999683;28;45255;-75
2022/01/09 02:07:32;;;;;;;;;2.75;1.00;;;;;5.78;74.94;100024.69;4994686;28;47012;-76
2022/01/09 02:09:57;;;;;;;;;3.00;2.00;;;;;5.75;74.60;100017.63;4999451;28;47974;-76
2022/01/09 02:12:23;;;;;;;;;5.25;1.50;;;;;5.63;75.03;99998.91;4996363;28;45436;-75
2022/01/09 02:14:48;;;;;;;;;2.00;1.00;;;;;5.71;75.27;100027.94;4995614;28;45325;-76
2022/01/09 02:17:19;;;;;;;;;0.50;0.00;;;;;5.83;74.42;100055.47;4997655;28;45352;-75
2022/01/09 02:19:57;;;;;;;;;1.75;1.00;;;;;5.64;74.49;100021.63;4997336;28;45743;-76
2022/01/09 02:22:25;;;;;;;;;2.25;0.75;;;;;5.87;74.79;100058.19;4996970;28;45221;-76
2022/01/09 02:24:52;;;;;;;;;0.75;0.75;;;;;5.78;74.95;100048.28;4999116;28;45361;-76
2022/01/09 02:27:18;;;;;;;;;2.00;1.00;;;;;5.82;74.63;100064.19;4997603;28;45520;-75
2022/01/09 02:29:47;;;;;;;;;0.00;0.00;;;;;5.83;74.81;100055.47;4998329;28;46485;-76
2022/01/09 02:32:15;;;;;;;;;1.00;1.00;;;;;5.87;74.15;100055.56;4995332;28;45490;-76
2022/01/09 02:34:41;;;;;;;;;0.00;0.00;;;;;5.88;74.16;100066.13;4998836;28;45273;-76
2022/01/09 02:37:06;;;;;;;;;0.00;0.00;;;;;5.86;73.35;100077.41;4997000;28;46948;-76
2022/01/09 02:39:31;;;;;;;;;0.25;0.25;;;;;5.76;73.05;100071.84;5008068;28;47217;-76
2022/01/09 02:41:57;;;;;;;;;0.00;0.00;;;;;5.80;73.08;100089.47;4997299;28;45889;-76
2022/01/09 02:44:22;;;;;;;;;0.00;0.00;;;;;5.67;73.17;100078.53;4999310;28;45374;-76
2022/01/09 02:49:13;;;;;;;;;3.00;0.00;;;;;5.51;73.01;100046.56;4993004;28;45300;-76
2022/01/09 02:51:40;;;;;;;;;1.00;0.00;;;;;5.74;73.83;100089.28;5014876;28;45246;-77
2022/01/09 02:56:50;;;;;;;;;2.00;0.00;;;;;5.54;74.11;100085.09;4998569;28;45424;-76
2022/01/09 02:59:15;;;;;;;;;1.00;0.00;;;;;5.57;73.31;100093.06;4995809;28;45319;-76
2022/01/09 03:01:40;;;;;;;;;2.75;0.00;;;;;5.59;73.88;100107.09;4999845;28;45200;-76
2022/01/09 03:04:06;;;;;;;;;6.25;0.75;;;;;5.44;73.27;100064.69;4995132;28;45223;-75
2022/01/09 03:06:31;;;;;;;;;1.75;0.75;;;;;5.49;73.99;100087.59;5000135;28;45215;-75
2022/01/09 03:09:00;;;;;;;;;0.00;0.00;;;;;5.33;74.17;100074.81;5025824;28;47007;-76
2022/01/09 03:11:26;;;;;;;;;1.50;0.00;;;;;5.58;74.79;100119.34;5000116;28;45317;-76
2022/01/09 03:13:51;;;;;;;;;0.75;0.25;;;;;5.49;73.95;100099.78;4993692;28;45653;-77
2022/01/09 03:16:16;;;;;;;;;1.75;0.00;;;;;5.55;74.03;100123.59;4998812;28;46061;-76
2022/01/09 03:18:42;;;;;;;;;1.00;0.00;;;;;5.36;74.09;100085.38;4994492;28;45440;-76
2022/01/09 03:21:07;;;;;;;;;1.25;1.00;;;;;5.46;74.15;100097.97;4996951;28;45253;-76
2022/01/09 03:23:33;;;;;;;;;1.75;0.25;;;;;5.44;74.19;100104.00;4996104;28;45412;-76
2022/01/09 03:25:58;;;;;;;;;2.00;0.50;;;;;5.08;74.33;100039.91;5013030;28;46200;-76
2022/01/09 03:28:23;;;;;;;;;2.50;1.00;;;;;5.42;74.10;100103.03;4997642;28;46199;-76
2022/01/09 03:30:49;;;;;;;;;2.75;1.00;;;;;5.57;73.85;100125.44;4998408;28;45220;-76
2022/01/09 03:33:14;;;;;;;;;1.75;1.00;;;;;5.59;74.51;100159.53;4997765;28;45248;-76
2022/01/09 03:35:39;;;;;;;;;0.75;0.25;;;;;5.35;75.36;100123.81;4999103;28;45222;-76
2022/01/09 03:38:06;;;;;;;;;1.25;0.25;;;;;5.59;75.17;100177.88;4996696;28;46171;-75
2022/01/09 03:40:31;;;;;;;;;2.25;0.00;;;;;5.46;74.92;100157.34;5014980;28;45359;-75
2022/01/09 03:42:56;;;;;;;;;5.25;0.00;;;;;5.56;75.44;100172.53;4993893;28;45323;-75
2022/01/09 03:45:24;;;;;;;;;1.00;0.00;;;;;5.58;75.20;100169.16;4997961;28;45793;-75
2022/01/09 03:47:50;;;;;;;;;2.00;0.75;;;;;5.23;74.96;100112.88;4993933;28;47287;-75
2022/01/09 03:50:17;;;;;;;;;0.00;0.00;;;;;5.53;75.48;100181.19;4999406;28;45312;-75
2022/01/09 03:52:42;;;;;;;;;0.00;0.00;;;;;5.34;75.79;100144.69;4993669;28;45290;-74
2022/01/09 03:55:10;;;;;;;;;1.75;1.00;;;;;5.26;75.74;100133.06;4998476;28;46180;-75
2022/01/09 03:57:36;;;;;;;;;3.00;1.00;;;;;5.21;75.87;100125.06;4995911;28;45375;-76
2022/01/09 04:00:04;;;;;;;;;3.00;1.00;;;;;5.40;77.09;100163.25;4996597;28;45269;-75
2022/01/09 04:02:30;;;;;;;;;2.00;0.75;;;;;5.37;75.78;100153.56;4994303;28;45519;-76
2022/01/09 04:04:55;;;;;;;;;0.75;0.00;;;;;5.16;75.23;100121.38;4998283;28;45354;-76
2022/01/09 04:07:20;;;;;;;;;5.00;1.00;;;;;5.22;75.84;100131.19;4995425;28;45392;-75
2022/01/09 04:09:47;;;;;;;;;3.00;0.00;;;;;5.14;75.87;100131.78;4995784;28;45494;-76
2022/01/09 04:12:17;;;;;;;;;1.00;1.00;;;;;5.26;76.05;100146.16;4996439;28;45459;-76
2022/01/09 04:14:44;;;;;;;;;1.25;0.50;;;;;5.08;75.96;100114.97;4993188;28;45234;-76
2022/01/09 04:17:16;;;;;;;;;1.00;1.00;;;;;5.16;76.08;100138.00;4996544;28;46530;-75
2022/01/09 04:19:42;;;;;;;;;2.00;0.00;;;;;5.19;76.23;100159.91;4993439;28;45477;-75
2022/01/09 04:22:07;;;;;;;;;2.25;0.25;;;;;5.12;76.42;100161.38;4997683;28;46698;-76
2022/01/09 04:24:33;;;;;;;;;0.50;0.50;;;;;5.06;76.24;100167.31;4995406;28;45461;-75
2022/01/09 04:26:58;;;;;;;;;0.75;0.75;;;;;5.16;76.53;100179.91;4989130;28;45890;-76
2022/01/09 04:29:23;;;;;;;;;2.00;0.50;;;;;5.13;75.90;100164.09;4997798;28;45362;-76
2022/01/09 04:31:49;;;;;;;;;0.25;0.25;;;;;5.07;76.16;100149.84;4996102;28;45592;-76
2022/01/09 04:34:14;;;;;;;;;1.50;0.50;;;;;5.06;76.18;100130.63;4990389;28;45264;-76
2022/01/09 04:36:39;;;;;;;;;3.00;1.00;;;;;5.25;76.04;100181.97;4998218;28;45325;-76
2022/01/09 04:39:05;;;;;;;;;4.50;1.00;;;;;5.26;75.64;100173.25;4997501;28;45446;-76
2022/01/09 04:41:30;;;;;;;;;0.00;0.00;;;;;5.24;75.87;100167.09;4998081;28;45303;-75
2022/01/09 04:43:56;;;;;;;;;3.00;0.00;;;;;5.25;75.37;100170.59;4991731;28;47152;-77
2022/01/09 04:46:29;;;;;;;;;0.25;0.00;;;;;5.26;75.96;100170.63;4997888;28;46895;-77
2022/01/09 04:48:55;;;;;;;;;1.50;0.00;;;;;5.26;75.96;100168.00;4991448;28;45648;-76
2022/01/09 04:51:21;;;;;;;;;5.25;1.00;;;;;5.26;76.19;100161.88;4997714;28;45369;-76
2022/01/09 04:53:46;;;;;;;;;1.00;1.00;;;;;5.02;75.79;100125.25;4991120;28;46899;-78
2022/01/09 04:56:12;;;;;;;;;1.00;1.00;;;;;5.22;76.25;100155.66;4997892;28;47378;-78
2022/01/09 04:58:37;;;;;;;;;0.00;0.00;;;;;5.30;76.43;100176.91;4994212;28;45452;-78
2022/01/09 05:01:02;;;;;;;;;2.00;0.00;;;;;5.21;76.76;100161.75;5002337;28;45353;-76
2022/01/09 05:03:28;;;;;;;;;0.00;0.00;;;;;5.20;76.46;100157.31;5000058;28;45873;-76
2022/01/09 05:05:53;;;;;;;;;0.00;0.00;;;;;5.30;76.35;100176.91;5001885;28;45345;-78
2022/01/09 05:08:18;;;;;;;;;2.00;0.00;;;;;5.31;76.67;100176.03;4994279;28;45324;-78
2022/01/09 05:10:44;;;;;;;;;1.00;1.00;;;;;5.32;76.34;100183.97;5002139;28;45305;-78
2022/01/09 05:13:09;;;;;;;;;0.50;0.00;;;;;5.17;76.28;100144.13;4995395;28;45781;-77
2022/01/09 05:15:35;;;;;;;;;0.00;0.00;;;;;5.26;75.85;100154.91;5002661;28;45598;-77
2022/01/09 05:18:04;;;;;;;;;2.50;0.00;;;;;5.09;76.10;100138.59;4998456;28;45318;-78
2022/01/09 05:20:29;;;;;;;;;0.50;0.25;;;;;5.30;76.45;100175.16;4998728;28;45337;-79
2022/01/09 05:22:54;;;;;;;;;3.00;0.00;;;;;5.30;76.44;100156.81;4997825;28;45321;-78
2022/01/09 05:25:20;;;;;;;;;2.25;1.00;;;;;5.26;76.42;100152.28;4999759;28;46184;-79
2022/01/09 05:27:45;;;;;;;;;0.00;0.00;;;;;5.10;76.89;100119.44;4998928;28;45543;-79
2022/01/09 05:30:11;;;;;;;;;3.50;1.00;;;;;5.22;76.99;100131.19;5001126;28;45242;-79
2022/01/09 05:32:36;;;;;;;;;1.00;0.25;;;;;5.21;76.41;100138.16;4999736;28;45507;-78
2022/01/09 05:35:02;;;;;;;;;1.25;1.25;;;;;5.30;76.38;100138.47;5008277;28;47475;-79
2022/01/09 05:37:28;;;;;;;;;1.00;1.00;;;;;5.43;76.55;100157.22;5009756;28;45453;-79
2022/01/09 05:39:54;;;;;;;;;3.00;0.00;;;;;5.35;77.19;100144.78;4996776;28;45306;-79
2022/01/09 05:42:19;;;;;;;;;2.25;2.00;;;;;5.41;76.36;100149.34;4996636;28;45161;-80
2022/01/09 05:44:46;;;;;;;;;2.50;0.00;;;;;5.05;75.92;100099.16;4990143;28;47244;-79
2022/01/09 05:47:12;;;;;;;;;6.50;1.00;;;;;5.29;76.53;100159.38;4998566;28;45452;-79
2022/01/09 05:49:37;;;;;;;;;2.00;0.00;;;;;5.45;76.17;100179.16;4999777;28;45377;-79
2022/01/09 05:52:03;;;;;;;;;1.25;0.00;;;;;5.42;76.86;100184.28;4999226;28;45365;-79
2022/01/09 05:54:28;;;;;;;;;0.00;0.00;;;;;5.52;76.89;100200.41;4996801;28;45321;-79
2022/01/09 05:56:53;;;;;;;;;0.75;0.75;;;;;5.54;76.36;100193.44;4999004;28;45394;-79
2022/01/09 05:59:20;;;;;;;;;2.00;1.00;;;;;5.57;76.93;100190.03;4996784;28;45329;-80
2022/01/09 06:01:46;;;;;;;;;6.00;1.00;;;;;5.69;76.60;100197.47;4999555;28;45638;-79
2022/01/09 06:04:11;;;;;;;;;2.25;0.50;;;;;5.67;75.83;100191.28;4996052;28;46173;-78
2022/01/09 06:06:36;;;;;;;;;5.00;2.00;;;;;5.60;76.68;100166.56;5015484;28;45292;-78
2022/01/09 06:09:02;;;;;;;;;2.00;1.00;;;;;5.52;76.39;100137.47;4993872;28;45618;-78
2022/01/09 06:11:28;;;;;;;;;2.50;1.00;;;;;5.46;76.61;100129.41;5000880;28;45503;-78
2022/01/09 06:13:53;;;;;;;;;3.75;2.00;;;;;5.57;75.72;100166.44;4993684;28;45624;-79
2022/01/09 06:16:18;;;;;;;;;1.25;1.25;;;;;5.59;75.92;100170.03;4998180;28;45285;-79
2022/01/09 06:18:44;;;;;;;;;1.75;1.00;;;;;5.54;75.91;100172.47;4995863;28;45348;-78
2022/01/09 06:21:09;;;;;;;;;0.00;0.00;;;;;5.53;76.36;100185.56;4996396;28;45951;-78
2022/01/09 06:23:35;;;;;;;;;1.00;0.00;;;;;5.52;75.81;100189.03;4997096;28;45505;-78
2022/01/09 06:26:00;;;;;;;;;0.00;0.00;;;;;5.45;75.98;100182.66;4998558;28;45345;-79
2022/01/09 06:28:26;;;;;;;;;0.50;0.50;;;;;5.52;75.62;100192.53;4998839;28;45220;-79
2022/01/09 06:30:52;;;;;;;;;1.00;1.00;;;;;5.47;75.41;100174.88;4999199;28;46407;-79
2022/01/09 06:33:17;;;;;;;;;0.00;0.00;;;;;5.58;76.00;100202.34;5002381;28;48242;-79
2022/01/09 06:35:44;;;;;;;;;0.75;0.00;;;;;5.55;75.87;100205.75;5012267;28;44783;-79
2022/01/09 06:38:09;;;;;;;;;2.00;1.00;;;;;5.41;76.42;100191.25;4994663;28;45309;-79
2022/01/09 06:40:35;;;;;;;;;0.25;0.25;;;;;5.28;76.65;100175.94;4997428;28;45412;-78
2022/01/09 06:43:01;;;;;;;;;0.25;0.00;;;;;5.52;75.90;100225.72;4997527;28;46426;-80
2022/01/09 06:45:27;;;;;;;;;2.00;1.00;;;;;5.29;75.75;100194.34;5002087;28;44644;-79
2022/01/09 06:47:54;;;;;;;;;3.00;1.00;;;;;5.42;76.10;100211.38;4994446;28;45550;-79
2022/01/09 06:50:21;;;;;;;;;2.00;0.00;;;;;5.47;76.16;100225.53;5000128;28;45439;-79
2022/01/09 06:52:46;;;;;;;;;0.00;0.00;;;;;5.24;76.32;100172.31;4994248;28;45381;-79
2022/01/09 06:55:11;;;;;;;;;1.25;0.00;;;;;5.28;76.47;100182.06;5000086;28;45201;-78
2022/01/09 06:57:37;;;;;;;;;0.00;0.00;;;;;5.42;75.97;100208.75;4992535;28;45818;-76
2022/01/09 07:00:06;;;;;;;;;0.00;0.00;;;;;5.43;76.19;100218.41;4998498;28;45457;-76
2022/01/09 07:02:31;;;;;;;;;0.00;0.00;;;;;5.35;76.16;100196.31;4995000;28;46526;-77
2022/01/09 07:04:56;;;;;;;;;1.50;0.00;;;;;5.28;76.85;100187.31;4998819;28;45597;-77
2022/01/09 07:07:22;;;;;;;;;3.00;0.00;;;;;5.42;77.07;100216.63;4996348;28;45461;-77
2022/01/09 07:09:47;;;;;;;;;2.50;0.00;;;;;5.44;76.19;100219.31;4997705;28;45679;-78
2022/01/09 07:12:13;;;;;;;;;0.00;0.00;;;;;5.36;76.25;100193.72;4997218;28;46960;-80
2022/01/09 07:14:38;;;;;;;;;0.00;0.00;;;;;5.10;75.92;100150.00;5009358;28;45314;-77
2022/01/09 07:17:03;;;;;;;;;3.50;0.00;;;;;5.41;76.90;100219.22;4997382;28;45292;-78
2022/01/09 07:19:29;;;;;;;;;0.00;0.00;;;;;5.41;76.82;100208.72;4993392;28;45175;-79
2022/01/09 07:21:54;;;;;;;;;0.00;0.00;;;;;5.17;76.05;100180.78;4997936;28;45361;-76
2022/01/09 07:24:20;;;;;;;;;0.00;0.00;;;;;5.27;77.23;100196.00;4995394;28;45266;-76
2022/01/09 07:26:45;;;;;;;;;0.00;0.00;;;;;5.14;77.34;100186.81;4998759;28;45286;-76
2022/01/09 07:29:12;;;;;;;;;1.00;0.00;;;;;5.24;77.07;100209.00;4998154;28;46352;-77
2022/01/09 07:31:37;;;;;;;;;0.00;0.00;;;;;5.23;77.24;100215.06;4998588;28;45627;-76
2022/01/09 07:34:03;;;;;;;;;0.50;0.00;;;;;5.21;77.13;100210.59;5005564;28;45951;-76
2022/01/09 07:36:28;;;;;;;;;0.50;0.50;;;;;5.13;76.56;100198.13;4991884;28;45377;-75
2022/01/09 07:38:53;;;;;;;;;0.00;0.00;;;;;4.88;76.66;100157.06;4989727;28;45409;-75
2022/01/09 07:41:20;;;;;;;;;0.00;0.00;;;;;5.18;77.06;100202.63;4999913;28;45443;-76
2022/01/09 07:43:46;;;;;;;;;0.00;0.00;;;;;5.16;77.02;100206.09;4993706;28;46938;-76
2022/01/09 07:46:11;;;;;;;;;2.00;0.25;;;;;5.16;77.66;100206.09;4998374;28;45325;-76
2022/01/09 07:48:38;;;;;;;;;1.25;1.00;;;;;5.10;76.96;100216.38;4991458;28;45632;-76
2022/01/09 07:51:03;;;;;;;;;0.00;0.00;;;;;5.22;76.85;100241.22;4997984;28;48320;-76
2022/01/09 07:53:29;;;;;;;;;1.50;1.00;;;;;5.22;78.75;100230.75;4990869;28;45318;-76
2022/01/09 07:55:54;;;;;;;;;0.50;0.00;;;;;5.23;77.95;100225.53;5011760;28;45288;-75
2022/01/09 07:58:20;;;;;;;;;0.00;0.00;;;;;5.20;77.70;100228.06;4992862;28;45444;-75
2022/01/09 08:00:45;;;;;;;;;0.25;0.25;;;;;5.19;77.67;100223.66;4998721;28;45429;-76
2022/01/09 08:03:12;;;;;;;;;0.00;0.00;;;;;5.13;78.19;100211.25;4993383;28;45495;-76
2022/01/09 08:05:37;;;;;;;;;5.00;2.00;;;;;4.94;77.67;100186.09;4999372;28;45171;-76
2022/01/09 08:08:03;;;;;;;;;1.50;1.50;;;;;5.05;77.55;100215.31;4992709;28;45571;-77
2022/01/09 08:10:28;;;;;;;;;18.25;13.25;;;;;4.85;77.36;100182.25;5000341;28;45528;-77
2022/01/09 08:12:54;;;;;;;;;2.00;1.00;;;;;4.83;77.86;100181.28;4993422;28;46036;-77
2022/01/09 08:15:19;;;;;;;;;1.75;0.75;;;;;4.87;77.51;100197.19;4997839;28;45472;-78
2022/01/09 08:17:45;;;;;;;;;6.50;6.50;;;;;4.82;77.14;100190.00;4993969;28;45389;-78
2022/01/09 08:20:15;;;;;;;;;5.75;1.75;;;;;5.02;77.38;100227.41;4995938;28;45513;-78
2022/01/09 08:22:42;;;;;;;;;4.00;4.00;;;;;4.97;77.28;100215.84;4995343;28;45269;-79
2022/01/09 08:25:10;;;;;;;;;4.00;1.50;;;;;4.98;77.42;100209.78;4997646;28;45229;-78
2022/01/09 08:27:35;;;;;;;;;31.00;16.75;;;;;4.98;77.71;100215.91;4996221;28;45511;-78
2022/01/09 08:30:01;;;;;;;;;4.00;2.50;;;;;4.94;77.07;100212.28;4997495;28;46872;-78
2022/01/09 08:32:26;;;;;;;;;5.00;3.00;;;;;5.01;77.54;100215.13;5015406;28;45424;-78
2022/01/09 08:34:51;;;;;;;;;1.50;1.50;;;;;4.93;77.33;100196.53;4992929;28;45310;-79
2022/01/09 08:37:17;;;;;;;;;5.50;5.50;;;;;4.96;77.73;100198.34;4998632;28;46035;-79
2022/01/09 08:39:44;;;;;;;;;2.50;2.00;;;;;4.98;76.83;100196.69;4995501;28;45556;-79
2022/01/09 08:42:10;;;;;;;;;3.00;0.00;;;;;5.13;77.79;100221.72;4999784;28;45701;-79
2022/01/09 08:44:36;;;;;;;;;2.00;1.00;;;;;5.14;78.08;100226.09;4987929;28;45231;-79
2022/01/09 08:47:03;;;;;;;;;0.00;0.00;;;;;4.87;77.86;100171.00;4996599;28;45431;-79
2022/01/09 08:49:28;;;;;;;;;2.75;0.00;;;;;5.09;77.40;100195.34;4996629;28;46817;-81
2022/01/09 08:51:55;;;;;;;;;4.00;1.25;;;;;5.18;77.13;100194.78;5000237;28;45207;-81
2022/01/09 08:54:20;;;;;;;;;1.25;1.25;;;;;5.20;77.67;100188.75;4997023;28;45423;-79
2022/01/09 08:56:46;;;;;;;;;1.00;1.00;;;;;5.28;77.58;100204.75;4998415;28;45297;-76
2022/01/09 08:59:12;;;;;;;;;1.00;1.00;;;;;5.39;77.03;100227.88;4997136;28;45349;-82
2022/01/09 09:01:38;;;;;;;;;0.00;0.00;;;;;5.37;77.29;100224.31;5001671;28;45301;-80
2022/01/09 09:04:03;;;;;;;;;0.00;0.00;;;;;5.53;78.09;100251.97;5000311;28;45464;-80
2022/01/09 09:06:28;;;;;;;;;0.25;0.00;;;;;5.49;77.33;100238.69;5001699;28;45339;-80
2022/01/09 09:08:54;;;;;;;;;5.75;1.00;;;;;5.52;77.52;100236.22;4994499;28;47232;-79
2022/01/09 09:11:19;;;;;;;;;0.00;0.00;;;;;5.42;77.65;100210.50;5017383;28;45318;-79
2022/01/09 09:13:45;;;;;;;;;0.75;0.50;;;;;5.58;76.98;100245.16;4996129;28;45226;-80
2022/01/09 09:16:10;;;;;;;;;1.50;0.00;;;;;5.72;77.96;100276.22;4997868;28;45392;-79
2022/01/09 09:18:36;;;;;;;;;1.50;0.00;;;;;5.74;78.53;100271.91;4997272;28;45589;-79
2022/01/09 09:21:01;;;;;;;;;0.00;0.00;;;;;5.75;77.70;100282.47;4998598;28;45279;-79
2022/01/09 09:23:27;;;;;;;;;1.75;0.75;;;;;5.75;77.86;100282.47;4998368;28;45190;-78
2022/01/09 09:25:52;;;;;;;;;2.75;2.75;;;;;5.70;78.34;100273.53;5000051;28;45927;-77
2022/01/09 09:28:18;;;;;;;;;16.00;15.75;;;;;5.71;78.10;100269.19;4998828;28;45494;-79
2022/01/09 09:30:43;;;;;;;;;137.67;107.00;;;;;5.77;78.60;100278.19;5000612;28;45415;-78
2022/01/09 09:33:09;;;;;;;;;42.25;33.75;;;;;5.74;78.61;100269.28;4996033;28;45375;-77
2022/01/09 09:35:35;;;;;;;;;12.00;8.00;;;;;5.81;78.59;100285.31;4996475;28;45314;-76
2022/01/09 09:38:03;;;;;;;;;27.25;23.50;;;;;5.49;78.33;100237.00;4996605;28;45397;-75
2022/01/09 09:40:29;;;;;;;;;7.75;7.00;;;;;5.73;80.22;100271.03;4997765;28;45377;-75
2022/01/09 09:42:54;;;;;;;;;6.00;5.00;;;;;5.41;78.01;100213.97;4994863;28;45379;-75
2022/01/09 09:45:23;;;;;;;;;9.75;7.25;;;;;5.36;77.69;100219.03;4986759;28;45463;-76
2022/01/09 09:47:50;;;;;;;;;6.25;2.25;;;;;5.56;78.10;100266.91;4987080;28;45489;-77
2022/01/09 09:50:16;;;;;;;;;4.25;3.00;;;;;5.45;79.40;100257.78;5001039;28;45389;-77
2022/01/09 09:52:43;;;;;;;;;18.75;17.50;;;;;5.70;77.77;100299.75;4995132;28;45342;-77
2022/01/09 09:55:09;;;;;;;;;3.50;3.50;;;;;5.55;77.94;100271.28;5003285;28;46836;-77
2022/01/09 09:57:35;;;;;;;;;4.50;4.50;;;;;5.64;79.40;100289.06;4984511;28;47405;-77
2022/01/09 10:00:08;;;;;;;;;2.00;1.25;;;;;5.64;78.46;100293.41;5031777;28;45218;-77
2022/01/09 10:02:48;;;;;;;;;2.75;2.00;;;;;5.60;77.24;100268.81;4982035;28;45393;-77
2022/01/09 10:05:19;;;;;;;;;3.50;3.00;;;;;5.75;77.66;100292.06;4995411;28;45512;-77
2022/01/09 10:07:45;;;;;;;;;2.00;2.00;;;;;5.68;77.67;100279.56;4988173;28;45679;-77
2022/01/09 10:10:15;;;;;;;;;6.75;6.75;;;;;5.80;77.57;100291.41;4981501;28;45255;-77
2022/01/09 10:12:42;;;;;;;;;12.75;10.25;;;;;5.55;78.12;100236.31;4990740;28;45443;-77
2022/01/09 10:15:12;;;;;;;;;4.75;3.00;;;;;5.73;77.85;100259.66;4981602;28;45491;-76
2022/01/09 10:17:46;;;;;;;;;10.75;6.75;;;;;5.86;77.24;100285.47;4991905;28;45655;-76
2022/01/09 10:20:33;;;;;;;;;40.75;35.50;;;;;5.91;77.68;100303.97;5024277;28;45990;-76
2022/01/09 10:22:58;;;;;;;;;3.50;2.00;;;;;5.76;77.84;100267.63;4996371;28;45586;-77
2022/01/09 10:25:33;;;;;;;;;58.50;47.50;;;;;5.59;76.88;100241.69;4995798;28;45210;-77
2022/01/09 10:28:04;;;;;;;;;113.50;103.25;;;;;5.76;77.60;100289.47;4986807;28;46976;-78
2022/01/09 10:30:39;;;;;;;;;111.25;103.75;;;;;5.74;78.46;100285.94;4995298;28;45351;-77
2022/01/09 10:33:10;;;;;;;;;1.75;1.75;;;;;5.66;77.09;100268.13;4993024;28;45369;-77
2022/01/09 10:35:38;;;;;;;;;3.00;3.00;;;;;5.79;77.16;100283.47;4984870;28;45355;-77
2022/01/09 10:38:16;;;;;;;;;6.00;6.00;;;;;5.95;77.31;100311.16;4994286;28;45382;-77
2022/01/09 10:40:49;;;;;;;;;34.50;29.75;;;;;6.00;77.15;100312.22;4991641;28;45418;-78
2022/01/09 10:43:16;;;;;;;;;6.00;6.00;;;;;6.05;77.46;100329.03;4983501;28;45415;-77
2022/01/09 10:45:46;;;;;;;;;14.50;11.25;;;;;5.84;76.88;100298.53;4986281;28;46902;-76
2022/01/09 10:48:23;;;;;;;;;2.00;0.00;;;;;5.84;77.20;100298.53;4992598;28;45715;-77
2022/01/09 10:50:50;;;;;;;;;7.50;4.25;;;;;5.83;77.43;100304.63;4987785;28;45364;-76
2022/01/09 10:53:24;;;;;;;;;3.50;3.50;;;;;5.91;78.42;100330.19;4993632;28;45285;-76
2022/01/09 10:56:24;;;;;;;;;11.50;9.50;;;;;5.92;77.91;100347.75;4997855;28;46207;-76
2022/01/09 10:58:50;;;;;;;;;78.00;64.67;;;;;5.87;77.98;100336.19;4991031;28;46610;-76
2022/01/09 11:01:28;;;;;;;;;43.25;39.50;;;;;5.93;78.19;100341.66;4983446;28;45407;-75
2022/01/09 11:03:57;;;;;;;;;4.50;3.00;;;;;5.82;76.91;100322.91;4993830;28;45372;-76
2022/01/09 11:06:25;;;;;;;;;29.75;23.75;;;;;5.82;77.23;100336.00;4999831;28;45333;-76
2022/01/09 11:08:51;;;;;;;;;7.50;7.50;;;;;5.77;77.19;100337.56;4984891;28;45598;-77
2022/01/09 11:13:47;;;;;;;;;13.75;12.00;;;;;5.78;77.91;100337.66;4991904;28;45408;-75
2022/01/09 11:16:33;;;;;;;;;5.50;5.25;;;;;5.73;78.24;100322.59;4996766;28;45473;-74
2022/01/09 11:19:01;;;;;;;;;3.00;3.00;;;;;5.81;79.42;100311.53;4996474;28;46241;-75
2022/01/09 11:21:27;;;;;;;;;3.50;3.50;;;;;5.68;77.99;100290.94;4999340;28;45369;-75
2022/01/09 11:24:31;;;;;;;;;2.25;2.25;;;;;5.94;77.33;100327.75;4994025;28;45214;-74
2022/01/09 11:27:25;;;;;;;;;2.50;2.25;;;;;6.01;77.36;100332.34;4995748;28;45337;-73
2022/01/09 11:30:14;;;;;;;;;2.50;2.00;;;;;6.10;77.85;100343.16;4996786;28;45329;-74
2022/01/09 11:33:30;;;;;;;;;3.75;2.75;;;;;6.17;77.93;100339.03;4997579;28;45374;-74
2022/01/09 11:36:20;;;;;;;;;5.75;4.25;;;;;6.25;76.59;100334.94;4971480;28;45534;-74
2022/01/09 11:38:46;;;;;;;;;7.50;6.75;;;;;6.32;77.36;100341.28;4991593;28;45344;-74
2022/01/09 11:41:19;;;;;;;;;10.00;6.00;;;;;6.40;77.18;100347.69;4999317;28;45443;-74